Aviation Digital Data Service (ADDS)

Output produced by METARs form (1353 UTC 01 August 2014)
found at http://www.aviationweather.gov/adds/metars/
 
KSPI 011245Z 0113/0212 VRB02KT P6SM SCT080 BKN250 
     FM011800 22005KT P6SM VCTS BKN060CB 
     FM012300 VRB03KT P6SM BKN150 
     FM020400 00000KT 5SM BR SKC